Terminal Aerodrome Forecast
Issued by NWS

Home | Current Version | Previous Version | Text Only | Print | Product List | Glossary Off
Versions: 1 2 3 4 5 6 7 8 9 10 11 12 13 14 15 16

000
FTUS43 KUNR 262320
TAFGCC
TAF
KGCC 262320Z 2700/2724 22011KT P6SM BKN110
     FM272000 26010KT P6SM BKN090
     FM272100 29009KT P6SM BKN080
     FM272200 32008KT P6SM BKN070
     FM272300 35008KT P6SM BKN050=

USA.gov is the U.S. government's official web portal to all federal, state and local government web resources and services.